Time;durP1;ratioP1;P1;durP2;ratioP2;P2;SDS_P1;SDS_P2;PMS_P1;PMS_P2;Temp;Humidity;BMP_temperature;BMP_pressure;BME280_temperature;BME280_humidity;BME280_pressure;Samples;Min_cycle;Max_cycle;Signal;HPM_P1;HPM_P2
2022/04/16 00:02:02;;;;;;;6.70;3.40;;;11.30;71.80;;;;;;5043364;28;20996;-78
2022/04/16 00:04:29;;;;;;;6.23;3.17;;;11.30;72.40;;;;;;5038638;28;20791;-80
2022/04/16 00:06:55;;;;;;;5.63;3.17;;;11.30;72.30;;;;;;5037622;28;20796;-78
2022/04/16 00:09:21;;;;;;;4.30;2.80;;;11.30;72.30;;;;;;5039880;28;20435;-79
2022/04/16 00:11:47;;;;;;;6.87;3.13;;;11.30;72.30;;;;;;5049037;28;20438;-80
2022/04/16 00:14:15;;;;;;;3.50;2.67;;;11.30;72.30;;;;;;5045906;28;20188;-78
2022/04/16 00:16:41;;;;;;;6.23;3.50;;;11.30;72.30;;;;;;5047715;28;20313;-78
2022/04/16 00:19:08;;;;;;;4.90;3.10;;;11.30;72.10;;;;;;5036738;28;20459;-79
2022/04/16 00:21:35;;;;;;;5.00;3.10;;;11.30;71.80;;;;;;5031337;28;20993;-79
2022/04/16 00:24:01;;;;;;;3.67;2.43;;;11.30;72.30;;;;;;5032634;28;20424;-78
2022/04/16 00:26:28;;;;;;;3.50;2.57;;;11.20;72.30;;;;;;5032506;28;20448;-77
2022/04/16 00:28:53;;;;;;;5.40;3.07;;;11.20;72.30;;;;;;5031521;28;20523;-78
2022/04/16 00:31:20;;;;;;;3.80;3.00;;;11.10;72.40;;;;;;5037402;28;20456;-80
2022/04/16 00:33:47;;;;;;;5.97;3.27;;;11.00;72.70;;;;;;5032639;28;20276;-79
2022/04/16 00:36:16;;;;;;;7.50;2.50;;;11.00;72.90;;;;;;5035629;28;20534;-77
2022/04/16 00:38:42;;;;;;;7.80;2.93;;;10.90;72.90;;;;;;5039738;28;20443;-76
2022/04/16 00:41:08;;;;;;;4.23;2.87;;;10.80;73.30;;;;;;5045713;28;20474;-79
2022/04/16 00:43:34;;;;;;;4.60;2.73;;;10.80;73.70;;;;;;5042456;28;20454;-78
2022/04/16 00:46:00;;;;;;;4.40;2.63;;;10.70;73.70;;;;;;5038354;28;20205;-78
2022/04/16 00:48:26;;;;;;;4.10;2.60;;;10.70;74.00;;;;;;5036693;28;20191;-78
2022/04/16 00:50:56;;;;;;;4.63;2.70;;;10.70;74.00;;;;;;5039394;28;20204;-78
2022/04/16 00:53:25;;;;;;;4.80;3.20;;;10.80;73.90;;;;;;5035520;28;20893;-77
2022/04/16 00:55:51;;;;;;;4.60;2.60;;;10.90;73.50;;;;;;5031572;28;20448;-75
2022/04/16 00:58:17;;;;;;;4.73;3.23;;;10.80;73.20;;;;;;5039256;28;20427;-78
2022/04/16 01:00:43;;;;;;;4.30;2.57;;;10.80;73.30;;;;;;5032088;28;20472;-77
2022/04/16 01:03:09;;;;;;;4.00;2.37;;;10.80;73.50;;;;;;5041768;28;20418;-77
2022/04/16 01:05:37;;;;;;;3.93;2.73;;;10.90;72.90;;;;;;5035904;28;20434;-76
2022/04/16 01:08:04;;;;;;;3.73;2.53;;;10.90;72.60;;;;;;5037272;28;20180;-78
2022/04/16 01:10:33;;;;;;;3.63;2.37;;;10.90;72.70;;;;;;5034641;28;20823;-77
2022/04/16 01:13:01;;;;;;;4.03;2.97;;;10.90;72.70;;;;;;5024320;28;20424;-76
2022/04/16 01:15:29;;;;;;;3.13;2.17;;;11.00;72.60;;;;;;5038232;28;20428;-77
2022/04/16 01:17:56;;;;;;;5.10;2.87;;;10.90;72.40;;;;;;5039662;28;20424;-78
2022/04/16 01:20:22;;;;;;;6.20;2.57;;;10.90;72.60;;;;;;5042511;28;20443;-77
2022/04/16 01:22:50;;;;;;;4.87;2.50;;;10.90;72.60;;;;;;5040847;28;20419;-77
2022/04/16 01:25:16;;;;;;;8.50;2.80;;;10.90;72.40;;;;;;5036039;28;20416;-77
2022/04/16 01:27:46;;;;;;;3.50;2.70;;;10.90;72.60;;;;;;5040590;28;20911;-79
2022/04/16 01:30:17;;;;;;;4.17;2.70;;;10.90;72.60;;;;;;5037461;28;20418;-77
2022/04/16 01:32:43;;;;;;;3.17;2.20;;;10.80;72.40;;;;;;5033337;28;20412;-78
2022/04/16 01:35:10;;;;;;;5.60;2.63;;;10.80;72.70;;;;;;5033271;28;20419;-78
2022/04/16 01:37:37;;;;;;;3.13;2.40;;;10.70;72.70;;;;;;5033439;28;20443;-80
2022/04/16 01:40:08;;;;;;;3.10;2.33;;;10.70;72.90;;;;;;5033572;28;20787;-78
2022/04/16 01:42:35;;;;;;;4.00;2.47;;;10.70;72.70;;;;;;5032734;28;20459;-81
2022/04/16 01:45:09;;;;;;;4.30;2.70;;;10.70;72.90;;;;;;5043198;28;20431;-79
2022/04/16 01:47:36;;;;;;;3.20;2.60;;;10.70;72.90;;;;;;5033647;28;20499;-79
2022/04/16 01:50:07;;;;;;;4.20;2.70;;;10.70;72.90;;;;;;5033188;28;20439;-80
2022/04/16 01:52:35;;;;;;;2.97;2.23;;;10.70;72.70;;;;;;5032233;28;20416;-77
2022/04/16 01:55:01;;;;;;;4.20;2.90;;;10.70;72.60;;;;;;5046007;28;20419;-79
2022/04/16 01:57:27;;;;;;;4.80;3.13;;;10.60;73.00;;;;;;5037281;28;20984;-77
2022/04/16 01:59:54;;;;;;;3.60;2.70;;;10.50;73.30;;;;;;5030316;28;20192;-76
2022/04/16 02:02:20;;;;;;;4.23;2.83;;;10.40;73.50;;;;;;5031385;28;20212;-78
2022/04/16 02:04:46;;;;;;;4.97;2.97;;;10.40;73.90;;;;;;5038009;28;20470;-78
2022/04/16 02:07:13;;;;;;;4.50;2.70;;;10.40;74.00;;;;;;5041948;28;20554;-77
2022/04/16 02:09:39;;;;;;;6.20;3.50;;;10.30;74.20;;;;;;5037687;28;20424;-79
2022/04/16 02:12:06;;;;;;;5.03;2.80;;;10.30;74.60;;;;;;5042810;28;20500;-76
2022/04/16 02:14:32;;;;;;;4.87;2.80;;;10.20;74.80;;;;;;5063711;28;20421;-77
2022/04/16 02:16:58;;;;;;;3.63;2.63;;;10.20;74.90;;;;;;5057149;28;20515;-76
2022/04/16 02:19:24;;;;;;;4.67;2.87;;;10.20;75.20;;;;;;5055688;28;20200;-78
2022/04/16 02:21:50;;;;;;;4.90;3.10;;;10.10;75.40;;;;;;5053773;28;20463;-77
2022/04/16 02:24:17;;;;;;;5.17;2.77;;;10.00;75.70;;;;;;5061015;28;20180;-78
2022/04/16 02:26:46;;;;;;;3.10;2.50;;;10.00;76.10;;;;;;5049633;28;20287;-78
2022/04/16 02:29:13;;;;;;;3.70;2.87;;;9.90;76.20;;;;;;5041108;28;20426;-77
2022/04/16 02:31:39;;;;;;;4.60;2.97;;;9.90;76.40;;;;;;5050127;28;20803;-78
2022/04/16 02:34:07;;;;;;;3.80;2.90;;;9.90;76.70;;;;;;5047858;28;20427;-78
2022/04/16 02:36:33;;;;;;;4.43;2.10;;;9.80;77.00;;;;;;5044517;28;20470;-78
2022/04/16 02:39:00;;;;;;;4.50;3.10;;;9.70;77.10;;;;;;5052214;28;20447;-77
2022/04/16 02:41:26;;;;;;;4.77;3.10;;;9.60;77.70;;;;;;5053422;28;20459;-76
2022/04/16 02:43:58;;;;;;;3.97;2.50;;;9.60;77.70;;;;;;5049207;28;20791;-80
2022/04/16 02:49:09;;;;;;;4.87;3.00;;;9.50;78.60;;;;;;5037483;28;20415;-78
2022/04/16 02:51:35;;;;;;;4.47;2.80;;;9.40;79.00;;;;;;5041093;28;20801;-77
2022/04/16 02:54:00;;;;;;;4.00;2.77;;;9.30;79.00;;;;;;5044979;28;20423;-79
2022/04/16 02:56:26;;;;;;;3.80;2.70;;;9.30;79.50;;;;;;5047766;28;20208;-78
2022/04/16 02:58:52;;;;;;;4.53;3.23;;;9.20;79.70;;;;;;5040112;28;20255;-78
2022/04/16 03:01:18;;;;;;;4.60;2.83;;;9.20;79.70;;;;;;5047218;28;20548;-79
2022/04/16 03:03:44;;;;;;;3.70;2.77;;;9.10;80.00;;;;;;5044557;28;20211;-79
2022/04/16 03:06:10;;;;;;;5.87;3.70;;;9.10;80.20;;;;;;5039811;28;20292;-77
2022/04/16 03:08:36;;;;;;;3.70;2.50;;;9.00;80.80;;;;;;5036537;28;20427;-77
2022/04/16 03:11:04;;;;;;;4.40;2.73;;;8.90;80.80;;;;;;5044985;28;20431;-79
2022/04/16 03:13:34;;;;;;;6.50;2.90;;;8.90;81.10;;;;;;5040590;28;20431;-79
2022/04/16 03:18:47;;;;;;;5.00;3.20;;;8.80;81.70;;;;;;5039168;28;20479;-77
2022/04/16 03:21:14;;;;;;;3.97;2.50;;;8.70;81.80;;;;;;5048567;28;20499;-77
2022/04/16 03:23:40;;;;;;;4.47;2.73;;;8.60;82.10;;;;;;5040181;28;20769;-76
2022/04/16 03:26:05;;;;;;;4.10;2.67;;;8.60;82.40;;;;;;5043046;28;20458;-77
2022/04/16 03:28:34;;;;;;;3.00;2.07;;;8.50;82.50;;;;;;5043458;28;20921;-76
2022/04/16 03:31:00;;;;;;;4.43;2.73;;;8.60;82.80;;;;;;5035552;28;20242;-77
2022/04/16 03:33:25;;;;;;;4.10;2.73;;;8.60;82.70;;;;;;5037507;28;20966;-76
2022/04/16 03:35:52;;;;;;;8.13;3.30;;;8.70;82.20;;;;;;5035574;28;20239;-76
2022/04/16 03:38:20;;;;;;;4.60;3.00;;;8.70;82.10;;;;;;5037677;28;20177;-76
2022/04/16 03:40:48;;;;;;;3.83;3.10;;;8.70;82.10;;;;;;5036539;28;20439;-76
2022/04/16 03:43:14;;;;;;;4.50;2.87;;;8.80;82.10;;;;;;5040512;28;20439;-75
2022/04/16 03:45:40;;;;;;;4.90;2.93;;;8.80;81.80;;;;;;5049331;28;20423;-77
2022/04/16 03:48:07;;;;;;;4.80;2.80;;;8.80;81.70;;;;;;5042717;28;20420;-76
2022/04/16 03:50:34;;;;;;;4.10;2.60;;;8.80;81.50;;;;;;5036717;28;20201;-76
2022/04/16 03:53:01;;;;;;;5.47;3.10;;;8.80;81.50;;;;;;5042864;28;20416;-77
2022/04/16 04:00:59;;;;;;;6.93;2.67;;;8.90;81.40;;;;;;5038526;28;20462;-77
2022/04/16 04:03:25;;;;;;;5.43;3.30;;;8.90;81.50;;;;;;5048182;28;20503;-77
2022/04/16 04:05:53;;;;;;;5.20;3.00;;;8.90;81.70;;;;;;5046406;28;20470;-76
2022/04/16 04:08:20;;;;;;;4.67;3.17;;;8.90;81.70;;;;;;5049385;28;20427;-77
2022/04/16 04:10:47;;;;;;;4.30;3.00;;;8.90;81.40;;;;;;5045890;28;20424;-77
2022/04/16 04:13:14;;;;;;;4.23;2.93;;;8.90;81.70;;;;;;5045774;28;20438;-77
2022/04/16 04:15:43;;;;;;;6.63;3.33;;;8.90;81.50;;;;;;5035721;28;20436;-76
2022/04/16 04:18:09;;;;;;;4.80;3.00;;;8.90;81.80;;;;;;5040973;28;20416;-77
2022/04/16 04:20:35;;;;;;;6.93;3.70;;;8.90;81.90;;;;;;5036999;28;20521;-77
2022/04/16 04:23:03;;;;;;;5.20;3.30;;;8.90;82.10;;;;;;5039464;28;20776;-76
2022/04/16 04:25:29;;;;;;;5.10;3.77;;;8.80;82.10;;;;;;5042815;28;20461;-77
2022/04/16 04:27:55;;;;;;;5.60;3.67;;;8.90;82.20;;;;;;5040672;28;20508;-76
2022/04/16 04:30:21;;;;;;;5.80;3.80;;;8.90;81.90;;;;;;5038008;28;20508;-75
2022/04/16 04:32:47;;;;;;;5.57;3.17;;;9.00;81.80;;;;;;5035191;28;20614;-76
2022/04/16 04:35:13;;;;;;;5.63;3.47;;;9.00;81.50;;;;;;5035720;28;20474;-76
2022/04/16 04:37:39;;;;;;;5.77;3.60;;;9.00;81.40;;;;;;5035770;28;20440;-77
2022/04/16 04:40:05;;;;;;;5.40;3.50;;;9.00;81.50;;;;;;5035804;28;20419;-76
2022/04/16 04:42:33;;;;;;;8.20;3.77;;;9.00;81.40;;;;;;5034106;28;20258;-76
2022/04/16 04:44:59;;;;;;;4.93;3.43;;;9.00;81.20;;;;;;5037922;28;20465;-76
2022/04/16 04:47:25;;;;;;;7.17;3.30;;;9.10;81.10;;;;;;5036363;28;20446;-77
2022/04/16 04:49:51;;;;;;;6.00;3.67;;;9.10;81.10;;;;;;5033831;28;20953;-76
2022/04/16 04:52:21;;;;;;;5.73;3.50;;;9.10;80.80;;;;;;5033200;28;20424;-77
2022/04/16 04:54:47;;;;;;;3.90;3.33;;;9.10;80.60;;;;;;5041621;28;20185;-76
2022/04/16 04:57:13;;;;;;;8.47;3.83;;;9.10;80.80;;;;;;5035625;28;20479;-77
2022/04/16 04:59:39;;;;;;;9.17;3.73;;;9.10;80.80;;;;;;5053322;28;20423;-77
2022/04/16 05:02:05;;;;;;;5.67;3.80;;;9.10;80.80;;;;;;5043358;28;20204;-78
2022/04/16 05:04:32;;;;;;;6.07;3.90;;;9.20;80.80;;;;;;5038767;28;20188;-78
2022/04/16 05:06:57;;;;;;;6.17;3.43;;;9.20;80.50;;;;;;5040613;28;20505;-77
2022/04/16 05:09:24;;;;;;;7.17;4.30;;;9.20;79.70;;;;;;5042297;28;20461;-77
2022/04/16 05:11:49;;;;;;;5.70;3.57;;;9.20;80.20;;;;;;5040315;28;20193;-77
2022/04/16 05:14:15;;;;;;;7.80;3.47;;;9.30;80.30;;;;;;5037534;28;20427;-76
2022/04/16 05:16:41;;;;;;;6.90;3.73;;;9.40;80.20;;;;;;5047917;28;20220;-77
2022/04/16 05:19:07;;;;;;;5.50;3.47;;;9.50;79.30;;;;;;5047569;28;20180;-77
2022/04/16 05:21:33;;;;;;;7.53;4.60;;;9.30;78.60;;;;;;5047082;28;20550;-77
2022/04/16 05:23:59;;;;;;;6.00;4.27;;;9.20;79.30;;;;;;5040175;28;20431;-77
2022/04/16 05:26:25;;;;;;;7.17;4.47;;;9.00;80.00;;;;;;5040069;28;20288;-78
2022/04/16 05:28:50;;;;;;;6.70;4.20;;;8.90;80.50;;;;;;5038283;28;20567;-77
2022/04/16 05:31:19;;;;;;;5.50;4.07;;;8.80;80.90;;;;;;5038449;28;20184;-77
2022/04/16 05:36:29;;;;;;;9.80;4.70;;;8.90;80.90;;;;;;5035448;28;20446;-77
2022/04/16 05:38:55;;;;;;;7.93;5.00;;;8.80;80.80;;;;;;5044602;28;20427;-77
2022/04/16 05:41:21;;;;;;;5.20;3.73;;;8.80;80.60;;;;;;5044100;28;20228;-77
2022/04/16 05:43:48;;;;;;;4.70;3.70;;;8.90;80.50;;;;;;5039455;28;20211;-76
2022/04/16 05:46:14;;;;;;;6.70;4.50;;;9.10;79.90;;;;;;5049781;28;20232;-76
2022/04/16 05:48:39;;;;;;;6.70;4.03;;;9.10;79.20;;;;;;5041502;28;20433;-76
2022/04/16 05:51:05;;;;;;;5.43;4.20;;;9.10;79.60;;;;;;5032219;28;20374;-78
2022/04/16 05:53:31;;;;;;;5.90;4.03;;;9.20;79.20;;;;;;5036860;28;20566;-77
2022/04/16 05:55:58;;;;;;;7.43;4.37;;;9.30;78.90;;;;;;5032244;28;20436;-75
2022/04/16 05:58:24;;;;;;;9.63;4.30;;;9.30;78.70;;;;;;5032524;28;20431;-75
2022/04/16 06:00:50;;;;;;;7.87;4.80;;;9.30;78.60;;;;;;5033077;28;20829;-74
2022/04/16 06:03:16;;;;;;;6.60;4.40;;;9.30;78.70;;;;;;5032599;28;20173;-78
2022/04/16 06:05:41;;;;;;;6.97;3.93;;;9.20;78.90;;;;;;5033028;28;20200;-76
2022/04/16 06:08:07;;;;;;;5.70;3.80;;;9.20;79.00;;;;;;5046808;28;20910;-78
2022/04/16 06:10:36;;;;;;;7.03;4.40;;;9.30;79.20;;;;;;5035768;28;20207;-78
2022/04/16 06:13:02;;;;;;;6.60;3.70;;;9.40;79.00;;;;;;5025716;28;20240;-75
2022/04/16 06:15:27;;;;;;;5.30;3.53;;;9.50;78.70;;;;;;5037871;28;20800;-77
2022/04/16 06:17:53;;;;;;;6.37;4.40;;;9.60;78.40;;;;;;5035104;28;20976;-77
2022/04/16 06:20:19;;;;;;;6.40;4.20;;;9.50;78.00;;;;;;5037784;28;20571;-75
2022/04/16 06:22:45;;;;;;;5.50;3.70;;;9.40;79.00;;;;;;5034099;28;20216;-77
2022/04/16 06:25:10;;;;;;;5.37;3.90;;;9.40;78.70;;;;;;5038023;28;20177;-76
2022/04/16 06:27:39;;;;;;;7.07;4.63;;;9.50;78.70;;;;;;5036742;28;20208;-77
2022/04/16 06:30:10;;;;;;;7.80;4.13;;;9.70;78.30;;;;;;5030386;28;20201;-77
2022/04/16 06:32:36;;;;;;;8.70;4.50;;;9.70;78.00;;;;;;5039271;28;20830;-76
2022/04/16 06:35:05;;;;;;;6.80;4.23;;;9.80;77.80;;;;;;5031754;28;20420;-74
2022/04/16 06:37:34;;;;;;;7.33;4.30;;;9.80;77.30;;;;;;5031708;28;20497;-76
2022/04/16 06:40:02;;;;;;;6.33;3.87;;;9.80;77.40;;;;;;5035979;28;20423;-76
2022/04/16 06:42:28;;;;;;;5.60;3.87;;;9.80;77.60;;;;;;5035087;28;20510;-75
2022/04/16 06:44:54;;;;;;;7.90;4.10;;;9.90;77.80;;;;;;5034051;28;20418;-79
2022/04/16 06:47:20;;;;;;;6.63;4.20;;;10.00;77.60;;;;;;5039646;28;20444;-77
2022/04/16 06:49:45;;;;;;;6.30;4.20;;;10.10;76.50;;;;;;5043205;28;20339;-75
2022/04/16 06:52:12;;;;;;;8.70;5.07;;;10.10;76.20;;;;;;5031220;28;20243;-79
2022/04/16 06:54:38;;;;;;;7.13;4.37;;;9.90;76.70;;;;;;5036662;28;20713;-77
2022/04/16 06:57:04;;;;;;;8.67;4.67;;;9.80;77.60;;;;;;5046068;28;20520;-78
2022/04/16 06:59:30;;;;;;;7.33;4.73;;;9.80;77.60;;;;;;5056621;28;20427;-79
2022/04/16 07:01:56;;;;;;;5.87;4.40;;;9.70;77.40;;;;;;5050938;28;20479;-78
2022/04/16 07:04:21;;;;;;;7.70;4.43;;;9.80;77.70;;;;;;5059503;28;20209;-76
2022/04/16 07:06:47;;;;;;;7.23;4.50;;;9.80;77.70;;;;;;5057765;28;20223;-78
2022/04/16 07:09:13;;;;;;;8.63;4.47;;;10.00;77.40;;;;;;5054128;28;20224;-78
2022/04/16 07:11:39;;;;;;;7.33;4.77;;;10.10;77.00;;;;;;5046649;28;20189;-79
2022/04/16 07:14:04;;;;;;;8.73;4.90;;;10.00;76.50;;;;;;5044487;28;20186;-78
2022/04/16 07:16:30;;;;;;;8.53;5.00;;;10.00;77.00;;;;;;5038669;28;20316;-79
2022/04/16 07:18:56;;;;;;;8.27;5.20;;;9.90;77.60;;;;;;5041912;28;20200;-80
2022/04/16 07:21:21;;;;;;;11.50;5.07;;;9.70;77.80;;;;;;5037242;28;20209;-80
2022/04/16 07:23:47;;;;;;;12.27;5.10;;;9.70;78.40;;;;;;5033567;28;20180;-74
2022/04/16 07:26:13;;;;;;;10.10;4.63;;;9.70;78.90;;;;;;5034727;28;20735;-75
2022/04/16 07:28:38;;;;;;;8.33;5.37;;;9.70;78.90;;;;;;5038665;28;20185;-74
2022/04/16 07:31:04;;;;;;;11.00;5.17;;;9.90;78.10;;;;;;5036276;28;20185;-74
2022/04/16 07:33:31;;;;;;;8.90;4.87;;;10.00;77.80;;;;;;5040720;28;20217;-76
2022/04/16 07:35:57;;;;;;;8.10;4.50;;;10.30;77.60;;;;;;5037108;28;20205;-76
2022/04/16 07:38:23;;;;;;;9.80;4.87;;;10.50;76.50;;;;;;5043124;28;20523;-76
2022/04/16 07:40:49;;;;;;;10.13;5.90;;;10.70;75.50;;;;;;5039018;28;20518;-76
2022/04/16 07:43:15;;;;;;;6.93;4.40;;;10.80;75.10;;;;;;5033263;28;20208;-77
2022/04/16 07:45:41;;;;;;;8.40;4.97;;;10.90;74.50;;;;;;5039950;28;20185;-76
2022/04/16 07:48:08;;;;;;;7.07;5.30;;;11.00;73.90;;;;;;5037550;28;20415;-74
2022/04/16 07:50:33;;;;;;;11.63;5.73;;;11.00;73.90;;;;;;5033886;28;20590;-75
2022/04/16 07:52:59;;;;;;;12.10;5.70;;;11.00;73.90;;;;;;5030784;28;20510;-75
2022/04/16 07:55:31;;;;;;;6.43;4.50;;;10.90;74.30;;;;;;5038444;28;20219;-76
2022/04/16 07:58:00;;;;;;;10.23;5.80;;;11.10;74.30;;;;;;5041364;28;20432;-76
2022/04/16 08:00:26;;;;;;;8.97;5.60;;;11.00;73.90;;;;;;5036594;28;20444;-78
2022/04/16 08:02:52;;;;;;;9.77;5.80;;;11.00;73.90;;;;;;5043857;28;20479;-77
2022/04/16 08:05:18;;;;;;;9.00;5.43;;;11.20;73.70;;;;;;5039836;28;21020;-79
2022/04/16 08:07:44;;;;;;;11.47;5.93;;;11.00;73.70;;;;;;5041277;28;20205;-78
2022/04/16 08:10:10;;;;;;;10.83;6.27;;;11.00;74.60;;;;;;5038315;28;20186;-79
2022/04/16 08:12:37;;;;;;;9.20;6.30;;;11.00;74.60;;;;;;5042560;28;20427;-79
2022/04/16 08:15:06;;;;;;;11.20;5.30;;;11.00;74.50;;;;;;5039104;28;20432;-79
2022/04/16 08:17:33;;;;;;;13.13;6.77;;;10.90;75.10;;;;;;5044777;28;20447;-79
2022/04/16 08:19:59;;;;;;;10.80;6.40;;;11.00;74.80;;;;;;5040711;28;20504;-79
2022/04/16 08:22:28;;;;;;;10.80;6.90;;;11.10;74.50;;;;;;5038536;28;20838;-80
2022/04/16 08:27:38;;;;;;;14.70;6.90;;;11.30;74.00;;;;;;5038064;28;20437;-78
2022/04/16 08:30:04;;;;;;;11.73;6.60;;;11.40;73.50;;;;;;5035282;28;20428;-78
2022/04/16 08:32:35;;;;;;;13.40;7.57;;;11.50;73.00;;;;;;5038403;28;20196;-78
2022/04/16 08:35:00;;;;;;;11.40;6.40;;;11.30;73.30;;;;;;5036802;28;20520;-78
2022/04/16 08:37:26;;;;;;;14.03;6.63;;;11.30;73.60;;;;;;5034787;28;20531;-77
2022/04/16 08:39:52;;;;;;;11.87;6.83;;;11.40;73.30;;;;;;5039712;28;20190;-79
2022/04/16 08:42:20;;;;;;;16.07;7.13;;;11.50;73.30;;;;;;5039019;28;20220;-79
2022/04/16 08:44:46;;;;;;;9.97;6.13;;;11.50;72.90;;;;;;5034998;28;20188;-77
2022/04/16 08:47:13;;;;;;;11.20;6.00;;;11.50;73.20;;;;;;5041120;28;20456;-79
2022/04/16 08:49:39;;;;;;;11.03;6.20;;;11.50;72.70;;;;;;5038105;28;20448;-79
2022/04/16 08:52:08;;;;;;;10.10;5.77;;;11.50;72.90;;;;;;5043566;28;20443;-80
2022/04/16 08:54:39;;;;;;;13.50;7.10;;;11.40;72.40;;;;;;5045398;28;20426;-78
2022/04/16 08:57:05;;;;;;;14.63;6.50;;;11.30;73.30;;;;;;5047813;28;20440;-77
2022/04/16 08:59:31;;;;;;;12.97;6.47;;;11.40;72.90;;;;;;5041837;28;20435;-79
2022/04/16 09:01:59;;;;;;;10.63;5.80;;;11.50;72.30;;;;;;5036952;28;20525;-78
2022/04/16 09:04:31;;;;;;;11.10;5.80;;;11.40;72.90;;;;;;5038674;28;20509;-78
2022/04/16 09:07:02;;;;;;;10.67;6.57;;;11.30;73.30;;;;;;5034300;28;20489;-77
2022/04/16 09:09:29;;;;;;;14.27;7.10;;;11.40;73.30;;;;;;5038625;28;20430;-78
2022/04/16 09:11:55;;;;;;;11.17;6.57;;;11.60;73.00;;;;;;5035119;28;20462;-77
2022/04/16 09:14:37;;;;;;;12.33;6.67;;;11.50;72.90;;;;;;5035881;28;20442;-79
2022/04/16 09:17:09;;;;;;;14.00;7.43;;;11.50;73.50;;;;;;5035664;28;20456;-79
2022/04/16 09:19:35;;;;;;;11.57;7.13;;;11.40;73.90;;;;;;5038082;28;20432;-79
2022/04/16 09:22:01;;;;;;;14.30;7.23;;;11.50;73.90;;;;;;5044851;28;20475;-78
2022/04/16 09:24:27;;;;;;;16.17;8.10;;;11.60;73.50;;;;;;5042800;28;20180;-77
2022/04/16 09:26:53;;;;;;;13.80;8.33;;;11.50;73.60;;;;;;5036949;28;20826;-79
2022/04/16 09:29:19;;;;;;;18.70;9.60;;;11.40;73.50;;;;;;5039252;28;20511;-77
2022/04/16 09:31:46;;;;;;;14.90;8.03;;;11.30;74.20;;;;;;5034985;28;20434;-79
2022/04/16 09:34:20;;;;;;;13.20;8.13;;;11.40;73.90;;;;;;5036983;28;20512;-78
2022/04/16 09:36:47;;;;;;;15.57;8.60;;;11.40;73.60;;;;;;5038711;28;20502;-78
2022/04/16 09:39:13;;;;;;;13.80;8.57;;;11.50;73.60;;;;;;5040246;28;20443;-79
2022/04/16 09:41:41;;;;;;;15.90;8.10;;;11.70;73.60;;;;;;5041471;28;20469;-80
2022/04/16 09:44:21;;;;;;;14.07;7.43;;;11.80;73.00;;;;;;5034335;28;20420;-79
2022/04/16 09:46:48;;;;;;;15.47;8.27;;;11.70;73.00;;;;;;5035749;28;20451;-80
2022/04/16 09:49:15;;;;;;;19.87;8.53;;;11.60;73.50;;;;;;5039446;28;20424;-79
2022/04/16 09:51:45;;;;;;;15.30;7.70;;;11.30;73.50;;;;;;5035606;28;20448;-79
2022/04/16 09:54:12;;;;;;;14.67;8.13;;;11.20;74.00;;;;;;5034108;28;20456;-80
2022/04/16 09:56:40;;;;;;;14.90;7.83;;;11.20;74.30;;;;;;5037188;28;20533;-78
2022/04/16 09:59:08;;;;;;;12.43;7.07;;;11.30;74.20;;;;;;5036535;28;20519;-78
2022/04/16 10:01:38;;;;;;;12.13;7.67;;;11.40;73.90;;;;;;5040376;28;20482;-78
2022/04/16 10:04:04;;;;;;;14.20;7.37;;;11.40;73.30;;;;;;5032873;28;20446;-77
2022/04/16 10:06:30;;;;;;;13.50;7.37;;;11.40;73.60;;;;;;5034634;28;20463;-77
2022/04/16 10:08:58;;;;;;;12.27;7.20;;;11.60;72.30;;;;;;5033564;28;20953;-79
2022/04/16 10:12:59;;;;;;;13.37;7.87;;;11.70;70.70;;;;;;5032993;28;20515;-78
2022/04/16 10:14:46;;;;;;;12.77;7.57;;;11.80;70.10;;;;;;5038939;28;20932;-79
2022/04/16 10:17:28;;;;;;;11.17;7.00;;;12.10;68.90;;;;;;5041801;28;20447;-80
2022/04/16 10:20:07;;;;;;;11.10;6.23;;;12.30;68.20;;;;;;5033245;28;20419;-79
2022/04/16 10:22:34;;;;;;;15.23;7.20;;;12.50;67.30;;;;;;5038538;28;20466;-78
2022/04/16 10:25:00;;;;;;;11.77;6.63;;;12.70;66.30;;;;;;5040137;28;20426;-78
2022/04/16 10:27:31;;;;;;;12.53;6.77;;;12.90;65.40;;;;;;5035367;28;20444;-80
2022/04/16 10:30:00;;;;;;;16.17;8.17;;;12.70;65.30;;;;;;5030545;28;20173;-80
2022/04/16 10:32:40;;;;;;;13.13;7.40;;;12.60;66.30;;;;;;5040673;28;20423;-78
2022/04/16 10:35:12;;;;;;;12.27;7.70;;;12.50;66.40;;;;;;5039953;28;20443;-78
2022/04/16 10:37:40;;;;;;;10.80;6.50;;;12.10;66.90;;;;;;5045360;28;20508;-79
2022/04/16 10:40:26;;;;;;;15.53;7.60;;;12.00;68.00;;;;;;5043071;28;20459;-79
2022/04/16 10:42:58;;;;;;;14.13;7.57;;;12.10;67.70;;;;;;5039085;28;20456;-79
2022/04/16 10:45:24;;;;;;;14.67;7.33;;;12.20;67.00;;;;;;5031421;28;20510;-78
2022/04/16 10:47:53;;;;;;;13.10;7.50;;;12.10;66.70;;;;;;5037010;28;20450;-79
2022/04/16 10:50:20;;;;;;;15.03;8.10;;;12.10;66.90;;;;;;5041650;28;20977;-78
2022/04/16 10:52:53;;;;;;;11.53;6.93;;;12.30;66.70;;;;;;5037195;28;20930;-78
2022/04/16 10:55:22;;;;;;;12.07;7.20;;;12.60;65.60;;;;;;5031013;28;20487;-77
2022/04/16 10:58:05;;;;;;;13.23;6.53;;;12.80;64.70;;;;;;5044459;28;20436;-78
2022/04/16 11:00:46;;;;;;;10.07;6.33;;;12.90;62.90;;;;;;5038857;28;20431;-80
2022/04/16 11:03:28;;;;;;;11.93;6.90;;;13.00;62.90;;;;;;5048445;28;20438;-79
2022/04/16 11:06:04;;;;;;;11.13;6.40;;;12.90;62.90;;;;;;5037471;28;21321;-79
2022/04/16 11:08:33;;;;;;;8.73;5.73;;;12.80;63.10;;;;;;5040134;28;20447;-78
2022/04/16 11:10:59;;;;;;;13.30;6.50;;;12.80;62.20;;;;;;5035709;28;20424;-80
2022/04/16 11:13:30;;;;;;;13.13;6.50;;;12.90;62.50;;;;;;5034238;28;20420;-78
2022/04/16 11:15:58;;;;;;;9.50;5.50;;;12.80;62.50;;;;;;5034836;28;20204;-78
2022/04/16 11:18:25;;;;;;;8.73;5.50;;;12.80;61.70;;;;;;5035833;28;20831;-80
2022/04/16 11:20:57;;;;;;;9.77;5.10;;;12.80;61.50;;;;;;5040952;28;20462;-78
2022/04/16 11:23:27;;;;;;;11.23;5.53;;;12.70;61.90;;;;;;5036839;28;20420;-79
2022/04/16 11:34:17;;;;;;;12.27;5.83;;;12.90;60.30;;;;;;5029601;28;21146;-79
2022/04/16 11:36:51;;;;;;;8.70;5.10;;;12.80;61.50;;;;;;5041271;28;20467;-79
2022/04/16 11:39:17;;;;;;;9.33;5.40;;;13.00;61.30;;;;;;5043551;28;20419;-80
2022/04/16 11:42:07;;;;;;;7.83;5.50;;;13.10;60.70;;;;;;5042476;28;20455;-78
2022/04/16 11:44:40;;;;;;;8.83;5.00;;;13.20;58.80;;;;;;5038494;28;20511;-79
2022/04/16 11:47:14;;;;;;;10.43;5.67;;;13.20;58.40;;;;;;5037213;28;20436;-79
2022/04/16 11:49:46;;;;;;;8.20;4.80;;;13.30;58.10;;;;;;5041503;28;20432;-79
2022/04/16 11:52:13;;;;;;;9.20;5.43;;;13.40;58.40;;;;;;5035217;28;21279;-80
2022/04/16 11:54:39;;;;;;;10.23;6.40;;;13.50;58.00;;;;;;5036860;28;20464;-80
2022/04/16 11:57:05;;;;;;;11.90;6.10;;;13.60;58.10;;;;;;5039710;28;20448;-79
2022/04/16 11:59:31;;;;;;;10.00;5.60;;;13.40;58.70;;;;;;5046601;28;20428;-77
2022/04/16 12:02:07;;;;;;;10.87;6.03;;;13.30;58.40;;;;;;5043674;28;20475;-80
2022/04/16 12:04:38;;;;;;;10.13;5.80;;;13.30;57.20;;;;;;5051934;28;20427;-81
2022/04/16 12:07:16;;;;;;;11.70;5.77;;;13.00;57.60;;;;;;5050512;28;20474;-79
2022/04/16 12:09:45;;;;;;;8.43;5.20;;;13.10;57.30;;;;;;5043622;28;20431;-77
2022/04/16 12:12:18;;;;;;;8.90;5.07;;;12.90;57.40;;;;;;5045815;28;20435;-77
2022/04/16 12:14:55;;;;;;;8.07;4.97;;;13.00;57.00;;;;;;5049815;28;20427;-79
2022/04/16 12:17:29;;;;;;;10.67;5.73;;;13.10;56.60;;;;;;5047222;28;20448;-78
2022/04/16 12:20:06;;;;;;;8.60;5.17;;;13.00;57.00;;;;;;5041863;28;20412;-80
2022/04/16 12:22:33;;;;;;;7.30;4.43;;;13.00;57.20;;;;;;5039067;28;20466;-80
2022/04/16 12:25:11;;;;;;;7.63;4.80;;;13.10;56.50;;;;;;5041932;28;20968;-79
2022/04/16 12:27:44;;;;;;;9.00;5.67;;;13.40;56.10;;;;;;5035964;28;20465;-79
2022/04/16 12:30:14;;;;;;;10.17;5.70;;;13.90;55.00;;;;;;5043073;28;20486;-79
2022/04/16 12:32:40;;;;;;;11.80;6.60;;;14.30;53.70;;;;;;5043671;28;20418;-79
2022/04/16 12:35:06;;;;;;;10.07;5.50;;;14.50;52.20;;;;;;5036302;28;20470;-78
2022/04/16 12:37:32;;;;;;;7.37;4.90;;;14.70;52.40;;;;;;5041454;28;20474;-79
2022/04/16 12:39:58;;;;;;;8.73;5.10;;;15.10;51.60;;;;;;5038895;28;20468;-79
2022/04/16 12:42:23;;;;;;;10.30;4.90;;;15.30;50.50;;;;;;5038451;28;20557;-80
2022/04/16 12:44:49;;;;;;;8.03;5.10;;;15.40;49.30;;;;;;5040751;28;20177;-77
2022/04/16 12:47:15;;;;;;;10.80;5.50;;;15.60;49.40;;;;;;5040024;28;20224;-78
2022/04/16 12:49:40;;;;;;;7.50;4.43;;;15.90;48.70;;;;;;5037906;28;20231;-77
2022/04/16 12:52:07;;;;;;;8.63;5.47;;;16.10;48.30;;;;;;5044490;28;20204;-79
2022/04/16 12:54:35;;;;;;;9.60;4.60;;;16.50;47.50;;;;;;5048686;28;20189;-79
2022/04/16 12:57:01;;;;;;;8.90;4.47;;;15.90;45.70;;;;;;5049190;28;20444;-78
2022/04/16 12:59:27;;;;;;;7.83;4.50;;;15.10;47.40;;;;;;5051536;28;20430;-79
2022/04/16 13:01:53;;;;;;;7.77;4.57;;;15.30;47.80;;;;;;5040037;28;20471;-76
2022/04/16 13:04:18;;;;;;;8.53;5.37;;;15.20;48.10;;;;;;5047077;28;20685;-80
2022/04/16 13:06:44;;;;;;;8.23;4.93;;;15.10;48.50;;;;;;5039372;28;20200;-79
2022/04/16 13:09:10;;;;;;;9.80;5.20;;;15.20;48.70;;;;;;5041740;28;20185;-79
2022/04/16 13:11:37;;;;;;;9.40;5.10;;;15.10;48.50;;;;;;5044510;28;20622;-79
2022/04/16 13:14:03;;;;;;;8.50;5.40;;;15.20;48.50;;;;;;5037295;28;20177;-79
2022/04/16 13:16:30;;;;;;;7.47;4.00;;;15.00;48.30;;;;;;5047085;28;20428;-78